Time;durP1;ratioP1;P1;durP2;ratioP2;P2;SDS_P1;SDS_P2;PMS_P1;PMS_P2;Temp;Humidity;BMP_temperature;BMP_pressure;BME280_temperature;BME280_humidity;BME280_pressure;Samples;Min_cycle;Max_cycle;Signal;HPM_P1;HPM_P2
2022/11/07 00:00:05;;;;;;;;;;;;;;;-143.57;100.00;51267.19;5053033;28;20415;-66
2022/11/07 00:02:36;;;;;;;;;;;;;;;-143.57;100.00;51271.19;5051720;28;19929;-66
2022/11/07 00:05:04;;;;;;;;;;;;;;;-143.57;100.00;51279.13;5044376;28;19971;-66
2022/11/07 00:07:31;;;;;;;;;;;;;;;-143.57;100.00;51251.31;5043995;28;19939;-66
2022/11/07 00:09:57;;;;;;;;;;;;;;;-143.57;100.00;51253.28;5045732;28;19929;-65
2022/11/07 00:12:24;;;;;;;;;;;;;;;-143.57;100.00;51247.31;5045923;28;19932;-68
2022/11/07 00:14:51;;;;;;;;;;;;;;;-143.57;100.00;51215.53;5045198;28;20370;-66
2022/11/07 00:17:17;;;;;;;;;;;;;;;-143.57;100.00;51239.38;5044978;28;19925;-66
2022/11/07 00:19:44;;;;;;;;;;;;;;;-143.57;100.00;51271.19;5053425;28;20410;-67
2022/11/07 00:22:11;;;;;;;;;;;;;;;-143.57;100.00;51263.22;5051878;28;20429;-66
2022/11/07 00:24:37;;;;;;;;;;;;;;;-143.57;100.00;51247.31;5052356;28;19925;-66
2022/11/07 00:27:04;;;;;;;;;;;;;;;-143.57;100.00;51314.91;5054857;28;19960;-66
2022/11/07 00:29:31;;;;;;;;;;;;;;;-143.57;100.00;51253.28;5051311;28;19956;-66
2022/11/07 00:31:58;;;;;;;;;;;;;;;-143.57;100.00;51291.06;5053778;28;19929;-66
2022/11/07 00:34:25;;;;;;;;;;;;;;;-143.57;100.00;51275.16;5054466;28;19928;-66
2022/11/07 00:36:51;;;;;;;;;;;;;;;-143.57;100.00;51269.19;5051999;28;19947;-66
2022/11/07 00:39:18;;;;;;;;;;;;;;;-143.57;100.00;51235.41;5050028;28;19926;-66
2022/11/07 00:41:48;;;;;;;;;;;;;;;-143.57;100.00;51263.22;5051444;28;20024;-65
2022/11/07 00:44:15;;;;;;;;;;;;;;;-143.57;100.00;51231.41;5052243;28;19935;-66
2022/11/07 00:46:41;;;;;;;;;;;;;;;-143.57;100.00;51314.91;5052729;28;20007;-65
2022/11/07 00:49:08;;;;;;;;;;;;;;;-143.57;100.00;51251.31;5052871;28;19985;-65
2022/11/07 00:51:35;;;;;;;;;;;;;;;-143.57;100.00;51306.97;5045200;28;19932;-65
2022/11/07 00:54:02;;;;;;;;;;;;;;;-143.57;100.00;51283.09;5041426;28;20432;-66
2022/11/07 00:56:29;;;;;;;;;;;;;;;-143.57;100.00;51283.09;5043479;28;19979;-66
2022/11/07 00:58:56;;;;;;;;;;;;;;;-143.57;100.00;51267.19;5043853;28;19929;-66
2022/11/07 01:01:24;;;;;;;;;;;;;;;-143.57;100.00;51251.31;5043547;28;19928;-66
2022/11/07 01:06:38;;;;;;;;;;;;;;;-143.57;100.00;51263.22;5040436;28;19935;-65
2022/11/07 01:09:06;;;;;;;;;;;;;;;-143.57;100.00;51287.09;5043568;28;19972;-65
2022/11/07 01:11:35;;;;;;;;;;;;;;;-143.57;100.00;51257.25;5043379;28;19929;-65
2022/11/07 01:14:01;;;;;;;;;;;;;;;-143.57;100.00;51231.41;5043486;28;20396;-66
2022/11/07 01:16:29;;;;;;;;;;;;;;;-143.57;100.00;51239.38;5044200;28;19925;-64
2022/11/07 01:18:56;;;;;;;;;;;;;;;-143.57;100.00;51291.06;5041824;28;20178;-65
2022/11/07 01:21:23;;;;;;;;;;;;;;;-143.57;100.00;51223.47;5043985;28;20308;-65
2022/11/07 01:23:49;;;;;;;;;;;;;;;-143.57;100.00;51249.31;5043725;28;19928;-65
2022/11/07 01:26:16;;;;;;;;;;;;;;;-143.57;100.00;51275.16;5043983;28;20153;-66
2022/11/07 01:28:42;;;;;;;;;;;;;;;-143.57;100.00;51251.31;5043478;28;20301;-66
2022/11/07 01:31:10;;;;;;;;;;;;;;;-143.57;100.00;51285.09;5042951;28;19925;-66
2022/11/07 01:33:37;;;;;;;;;;;;;;;-143.57;100.00;51269.19;5043522;28;20504;-66
2022/11/07 01:36:07;;;;;;;;;;;;;;;-143.57;100.00;51247.31;5043658;28;19929;-66
2022/11/07 01:38:40;;;;;;;;;;;;;;;-143.57;100.00;51271.19;5043548;28;20426;-66
2022/11/07 01:41:20;;;;;;;;;;;;;;;-143.57;100.00;51291.06;5043053;28;20585;-66
2022/11/07 01:43:50;;;;;;;;;;;;;;;-143.57;100.00;51267.19;5043213;28;19932;-66
2022/11/07 01:46:17;;;;;;;;;;;;;;;-143.57;100.00;51277.16;5043640;28;20326;-66
2022/11/07 01:48:48;;;;;;;;;;;;;;;-143.57;100.00;51235.41;5043097;28;19959;-66
2022/11/07 01:51:15;;;;;;;;;;;;;;;-143.57;100.00;51275.16;5042727;28;20403;-66
2022/11/07 01:53:42;;;;;;;;;;;;;;;-143.57;100.00;51251.31;5041876;28;19929;-66
2022/11/07 01:56:11;;;;;;;;;;;;;;;-143.57;100.00;51287.09;5042548;28;19929;-66
2022/11/07 01:58:37;;;;;;;;;;;;;;;-143.57;100.00;51275.16;5041450;28;19924;-66
2022/11/07 02:01:04;;;;;;;;;;;;;;;-143.57;100.00;51287.09;5042833;28;20032;-65
2022/11/07 02:03:31;;;;;;;;;;;;;;;-143.57;100.00;51273.16;5041149;28;19971;-65
2022/11/07 02:06:03;;;;;;;;;;;;;;;-143.57;100.00;51275.16;5041718;28;20297;-66
2022/11/07 02:08:32;;;;;;;;;;;;;;;-143.57;100.00;51287.09;5040570;28;19929;-66
2022/11/07 02:11:01;;;;;;;;;;;;;;;-143.57;100.00;51295.03;5042615;28;19929;-66
2022/11/07 02:13:29;;;;;;;;;;;;;;;-143.57;100.00;51267.19;5043058;28;19982;-65
2022/11/07 02:15:58;;;;;;;;;;;;;;;-143.57;100.00;51295.03;5042682;28;20369;-66
2022/11/07 02:18:26;;;;;;;;;;;;;;;-143.57;100.00;51267.19;5042766;28;19933;-65
2022/11/07 02:20:56;;;;;;;;;;;;;;;-143.57;100.00;51243.34;5042494;28;19928;-66
2022/11/07 02:23:26;;;;;;;;;;;;;;;-143.57;100.00;51273.16;5041870;28;20374;-65
2022/11/07 02:25:53;;;;;;;;;;;;;;;-143.57;100.00;51263.22;5041524;28;19975;-66
2022/11/07 02:28:22;;;;;;;;;;;;;;;-143.57;100.00;51247.31;5042113;28;19929;-65
2022/11/07 02:30:49;;;;;;;;;;;;;;;-143.57;100.00;51243.34;5039900;28;19931;-65
2022/11/07 02:33:16;;;;;;;;;;;;;;;-143.57;100.00;51279.13;5042205;28;19929;-65
2022/11/07 02:35:44;;;;;;;;;;;;;;;-143.57;100.00;51271.19;5041547;28;20024;-66
2022/11/07 02:38:32;;;;;;;;;;;;;;;-143.57;100.00;51306.97;5041380;28;19964;-66
2022/11/07 02:41:02;;;;;;;;;;;;;;;-143.57;100.00;51263.22;5039737;28;19975;-66
2022/11/07 02:43:30;;;;;;;;;;;;;;;-143.57;100.00;51251.31;5041616;28;20374;-66
2022/11/07 02:45:59;;;;;;;;;;;;;;;-143.57;100.00;51283.09;5041210;28;19932;-66
2022/11/07 02:48:29;;;;;;;;;;;;;;;-143.57;100.00;51263.22;5041627;28;20357;-65
2022/11/07 02:50:56;;;;;;;;;;;;;;;-143.57;100.00;51243.34;5041704;28;20347;-65
2022/11/07 02:53:23;;;;;;;;;;;;;;;-143.57;100.00;51247.31;5039412;28;19933;-65
2022/11/07 02:55:49;;;;;;;;;;;;;;;-143.57;100.00;51275.16;5039472;28;19929;-65
2022/11/07 02:58:16;;;;;;;;;;;;;;;-143.57;100.00;51291.06;5041871;28;20423;-65
2022/11/07 03:00:43;;;;;;;;;;;;;;;-143.57;100.00;51306.97;5042482;28;19983;-65
2022/11/07 03:03:09;;;;;;;;;;;;;;;-143.57;100.00;51287.09;5042575;28;19924;-65
2022/11/07 03:05:36;;;;;;;;;;;;;;;-143.57;100.00;51267.19;5041780;28;20020;-65
2022/11/07 03:08:02;;;;;;;;;;;;;;;-143.57;100.00;51297.03;5040023;28;19990;-66
2022/11/07 03:10:29;;;;;;;;;;;;;;;-143.57;100.00;51271.19;5042046;28;20054;-65
2022/11/07 03:12:56;;;;;;;;;;;;;;;-143.57;100.00;51287.09;5041677;28;20007;-65
2022/11/07 03:15:22;;;;;;;;;;;;;;;-143.57;100.00;51251.31;5042187;28;19936;-65
2022/11/07 03:17:49;;;;;;;;;;;;;;;-143.57;100.00;51312.94;5044974;28;20031;-65
2022/11/07 03:20:16;;;;;;;;;;;;;;;-143.57;100.00;51303.00;5046124;28;19974;-64
2022/11/07 03:22:43;;;;;;;;;;;;;;;-143.57;100.00;51269.19;5045875;28;19939;-64
2022/11/07 03:25:09;;;;;;;;;;;;;;;-143.57;100.00;51263.22;5046312;28;19925;-65
2022/11/07 03:27:43;;;;;;;;;;;;;;;-143.57;100.00;51303.00;5044402;28;19964;-66
2022/11/07 03:30:10;;;;;;;;;;;;;;;-143.57;100.00;51314.91;5045911;28;19928;-65
2022/11/07 03:32:37;;;;;;;;;;;;;;;-143.57;100.00;51289.06;5046433;28;19972;-65
2022/11/07 03:35:04;;;;;;;;;;;;;;;-143.57;100.00;51287.09;5043741;28;19933;-65
2022/11/07 03:37:30;;;;;;;;;;;;;;;-143.57;100.00;51283.09;5045735;28;19929;-65
2022/11/07 03:39:57;;;;;;;;;;;;;;;-143.57;100.00;51251.31;5048124;28;19954;-65
2022/11/07 03:42:24;;;;;;;;;;;;;;;-143.57;100.00;51237.38;5057337;28;19928;-66
2022/11/07 03:44:50;;;;;;;;;;;;;;;-143.57;100.00;51291.06;5055463;28;19930;-66
2022/11/07 03:47:17;;;;;;;;;;;;;;;-143.57;100.00;51291.06;5053098;28;19928;-66
2022/11/07 03:49:43;;;;;;;;;;;;;;;-143.57;100.00;51283.09;5055962;28;20414;-65
2022/11/07 03:52:10;;;;;;;;;;;;;;;-143.57;100.00;51273.16;5050054;28;20399;-66
2022/11/07 03:54:36;;;;;;;;;;;;;;;-143.57;100.00;51265.22;5049981;28;19976;-65
2022/11/07 03:57:03;;;;;;;;;;;;;;;-143.57;100.00;51287.09;5056149;28;19925;-65
2022/11/07 03:59:30;;;;;;;;;;;;;;;-143.57;100.00;51275.16;5054598;28;20483;-65
2022/11/07 04:01:56;;;;;;;;;;;;;;;-143.57;100.00;51303.00;5054651;28;20415;-65
2022/11/07 04:04:23;;;;;;;;;;;;;;;-143.57;100.00;51303.00;5054621;28;19925;-65
2022/11/07 04:06:50;;;;;;;;;;;;;;;-143.57;100.00;51261.25;5054462;28;20410;-66
2022/11/07 04:09:16;;;;;;;;;;;;;;;-143.57;100.00;51306.97;5050805;28;19929;-66
2022/11/07 04:17:19;;;;;;;;;;;;;;;-143.57;100.00;51291.06;5050341;28;20362;-66
2022/11/07 04:19:50;;;;;;;;;;;;;;;-143.57;100.00;51299.00;5053457;28;20035;-66
2022/11/07 04:22:17;;;;;;;;;;;;;;;-143.57;100.00;51283.09;5050893;28;19928;-66
2022/11/07 04:24:43;;;;;;;;;;;;;;;-143.57;100.00;51291.06;5051378;28;19925;-66
2022/11/07 04:29:57;;;;;;;;;;;;;;;-143.57;100.00;51283.09;5051997;28;19962;-66
2022/11/07 04:32:24;;;;;;;;;;;;;;;-143.57;100.00;51306.97;5051650;28;20370;-65
2022/11/07 04:34:51;;;;;;;;;;;;;;;-143.57;100.00;51310.94;5054291;28;20374;-66
2022/11/07 04:37:18;;;;;;;;;;;;;;;-143.57;100.00;51295.03;5051727;28;19967;-66
2022/11/07 04:39:44;;;;;;;;;;;;;;;-143.57;100.00;51273.16;5051235;28;20330;-66
2022/11/07 04:42:11;;;;;;;;;;;;;;;-143.57;100.00;51295.03;5055083;28;20342;-66
2022/11/07 04:44:38;;;;;;;;;;;;;;;-143.57;100.00;51287.09;5053767;28;20326;-66
2022/11/07 04:47:04;;;;;;;;;;;;;;;-143.57;100.00;51314.91;5051910;28;19932;-66
2022/11/07 04:49:31;;;;;;;;;;;;;;;-143.57;100.00;51295.03;5055009;28;19925;-66
2022/11/07 04:51:57;;;;;;;;;;;;;;;-143.57;100.00;51279.13;5052223;28;20034;-66
2022/11/07 04:54:24;;;;;;;;;;;;;;;-143.57;100.00;51326.84;5049052;28;19983;-66
2022/11/07 04:56:51;;;;;;;;;;;;;;;-143.57;100.00;51301.00;5052516;28;19924;-66
2022/11/07 04:59:17;;;;;;;;;;;;;;;-143.57;100.00;51295.03;5053530;28;19934;-66
2022/11/07 05:01:44;;;;;;;;;;;;;;;-143.57;100.00;51277.16;5052463;28;20015;-66
2022/11/07 05:04:10;;;;;;;;;;;;;;;-143.57;100.00;51306.97;5053757;28;20021;-66
2022/11/07 05:06:37;;;;;;;;;;;;;;;-143.57;100.00;51279.13;5051373;28;20001;-66
2022/11/07 05:09:04;;;;;;;;;;;;;;;-143.57;100.00;51297.03;5054159;28;19935;-66
2022/11/07 05:11:31;;;;;;;;;;;;;;;-143.57;100.00;51297.03;5050868;28;20680;-66
2022/11/07 05:13:57;;;;;;;;;;;;;;;-143.57;100.00;51295.03;5051810;28;20047;-66
2022/11/07 05:16:24;;;;;;;;;;;;;;;-143.57;100.00;51314.91;5047488;28;20031;-65
2022/11/07 05:18:51;;;;;;;;;;;;;;;-143.57;100.00;51303.00;5049738;28;20019;-66
2022/11/07 05:21:17;;;;;;;;;;;;;;;-143.57;100.00;51303.00;5046787;28;19937;-66
2022/11/07 05:23:44;;;;;;;;;;;;;;;-143.57;100.00;51275.16;5044579;28;19935;-66
2022/11/07 05:26:11;;;;;;;;;;;;;;;-143.57;100.00;51281.13;5044913;28;19924;-66
2022/11/07 05:28:37;;;;;;;;;;;;;;;-143.57;100.00;51279.13;5047965;28;20023;-66
2022/11/07 05:31:06;;;;;;;;;;;;;;;-143.57;100.00;51285.09;5045483;28;20662;-66
2022/11/07 05:33:32;;;;;;;;;;;;;;;-143.57;100.00;51322.88;5045389;28;20366;-66
2022/11/07 05:36:09;;;;;;;;;;;;;;;-143.57;100.00;51316.91;5047228;28;19998;-65
2022/11/07 05:38:36;;;;;;;;;;;;;;;-143.57;100.00;51283.09;5046564;28;20395;-66
2022/11/07 05:41:03;;;;;;;;;;;;;;;-143.57;100.00;51299.00;5053561;28;19928;-67
2022/11/07 05:43:29;;;;;;;;;;;;;;;-143.57;100.00;51275.16;5054205;28;19968;-66
2022/11/07 05:45:59;;;;;;;;;;;;;;;-143.57;100.00;51289.06;5053116;28;20472;-66
2022/11/07 05:48:26;;;;;;;;;;;;;;;-143.57;100.00;51295.03;5046864;28;19982;-66
2022/11/07 05:50:53;;;;;;;;;;;;;;;-143.57;100.00;51267.19;5041808;28;19929;-66
2022/11/07 05:53:20;;;;;;;;;;;;;;;-143.57;100.00;51304.97;5042296;28;19937;-66
2022/11/07 05:55:47;;;;;;;;;;;;;;;-143.57;100.00;51291.06;5040286;28;20438;-66
2022/11/07 05:58:13;;;;;;;;;;;;;;;-143.57;100.00;51267.19;5037842;28;19931;-66
2022/11/07 06:00:40;;;;;;;;;;;;;;;-143.57;100.00;51283.09;5042795;28;20401;-66
2022/11/07 06:03:07;;;;;;;;;;;;;;;-143.57;100.00;51283.09;5042506;28;20407;-66
2022/11/07 06:05:33;;;;;;;;;;;;;;;-143.57;100.00;51304.97;5042173;28;20028;-66
2022/11/07 06:08:00;;;;;;;;;;;;;;;-143.57;100.00;51283.09;5042012;28;20002;-66
2022/11/07 06:10:27;;;;;;;;;;;;;;;-143.57;100.00;51306.97;5042474;28;19967;-66
2022/11/07 06:12:57;;;;;;;;;;;;;;;-143.57;100.00;51277.16;5042406;28;19928;-66
2022/11/07 06:15:25;;;;;;;;;;;;;;;-143.57;100.00;51306.97;5040175;28;20033;-66
2022/11/07 06:17:52;;;;;;;;;;;;;;;-143.57;100.00;51310.94;5042066;28;19979;-66
2022/11/07 06:20:18;;;;;;;;;;;;;;;-143.57;100.00;51287.09;5042145;28;19925;-66
2022/11/07 06:22:45;;;;;;;;;;;;;;;-143.57;100.00;51295.03;5043014;28;20075;-66
2022/11/07 06:25:12;;;;;;;;;;;;;;;-143.57;100.00;51312.94;5041685;28;19929;-66
2022/11/07 06:27:38;;;;;;;;;;;;;;;-143.57;100.00;51291.06;5038462;28;19963;-66
2022/11/07 06:30:05;;;;;;;;;;;;;;;-143.57;100.00;51299.00;5041471;28;20286;-66
2022/11/07 06:32:32;;;;;;;;;;;;;;;-143.57;100.00;51267.19;5041642;28;20429;-65
2022/11/07 06:34:58;;;;;;;;;;;;;;;-143.57;100.00;51239.38;5042488;28;19986;-66
2022/11/07 06:37:25;;;;;;;;;;;;;;;-143.57;100.00;51291.06;5042097;28;20510;-66
2022/11/07 06:39:52;;;;;;;;;;;;;;;-143.57;100.00;51303.00;5037454;28;19935;-66
2022/11/07 06:42:19;;;;;;;;;;;;;;;-143.57;100.00;51304.97;5041584;28;19933;-66
2022/11/07 06:44:45;;;;;;;;;;;;;;;-143.57;100.00;51301.00;5042924;28;19925;-66
2022/11/07 06:47:12;;;;;;;;;;;;;;;-143.57;100.00;51324.84;5042793;28;19960;-66
2022/11/07 06:49:38;;;;;;;;;;;;;;;-143.57;100.00;51299.00;5042546;28;20031;-66
2022/11/07 06:52:05;;;;;;;;;;;;;;;-143.57;100.00;51306.97;5042140;28;20389;-66
2022/11/07 06:54:31;;;;;;;;;;;;;;;-143.57;100.00;51283.09;5040327;28;19925;-66
2022/11/07 06:56:58;;;;;;;;;;;;;;;-143.57;100.00;51326.84;5035976;28;19929;-66
2022/11/07 06:59:25;;;;;;;;;;;;;;;-143.57;100.00;51275.16;5039580;28;20369;-66
2022/11/07 07:01:51;;;;;;;;;;;;;;;-143.57;100.00;51283.09;5041458;28;19925;-67
2022/11/07 07:04:18;;;;;;;;;;;;;;;-143.57;100.00;51322.88;5042469;28;19964;-66
2022/11/07 07:06:45;;;;;;;;;;;;;;;-143.57;100.00;51279.13;5042219;28;20015;-67
2022/11/07 07:09:11;;;;;;;;;;;;;;;-143.57;100.00;51299.00;5042762;28;19929;-67
2022/11/07 07:11:38;;;;;;;;;;;;;;;-143.57;100.00;51287.09;5041686;28;20482;-67
2022/11/07 07:14:05;;;;;;;;;;;;;;;-143.57;100.00;51314.91;5042289;28;19929;-67
2022/11/07 07:16:37;;;;;;;;;;;;;;;-143.57;100.00;51287.09;5040765;28;19924;-66
2022/11/07 07:20:34;;;;;;;;;;;;;;;-143.57;100.00;51303.00;5094018;27;19926;-70
2022/11/07 07:23:01;;;;;;;;;;;;;;;-143.57;100.00;51279.13;5092936;28;19928;-71
2022/11/07 07:25:31;;;;;;;;;;;;;;;-143.57;100.00;51287.09;5097350;28;19936;-70
2022/11/07 07:27:58;;;;;;;;;;;;;;;-143.57;100.00;51295.03;5095162;28;19928;-70
2022/11/07 07:30:24;;;;;;;;;;;;;;;-143.57;100.00;51275.16;5098383;28;20027;-71
2022/11/07 07:32:51;;;;;;;;;;;;;;;-143.57;100.00;51310.94;5095639;28;19931;-73
2022/11/07 07:35:18;;;;;;;;;;;;;;;-143.57;100.00;51297.03;5100170;28;19962;-76
2022/11/07 07:37:48;;;;;;;;;;;;;;;-143.57;100.00;51303.00;5098780;28;19928;-73
2022/11/07 07:40:15;;;;;;;;;;;;;;;-143.57;100.00;51279.13;5099344;28;19931;-73
2022/11/07 07:42:45;;;;;;;;;;;;;;;-143.57;100.00;51312.94;5097560;28;19924;-74
2022/11/07 07:45:13;;;;;;;;;;;;;;;-143.57;100.00;51295.03;5081017;28;19931;-74
2022/11/07 07:47:40;;;;;;;;;;;;;;;-143.57;100.00;51322.88;5096036;28;19927;-74
2022/11/07 07:50:07;;;;;;;;;;;;;;;-143.57;100.00;51299.00;5073208;28;19995;-74
2022/11/07 07:52:34;;;;;;;;;;;;;;;-143.57;100.00;51297.03;5099966;28;19971;-74
2022/11/07 07:55:01;;;;;;;;;;;;;;;-143.57;100.00;51295.03;5091726;28;19932;-74
2022/11/07 07:57:28;;;;;;;;;;;;;;;-143.57;100.00;51287.09;5098721;28;20289;-74
2022/11/07 07:59:54;;;;;;;;;;;;;;;-143.57;100.00;51289.06;5091598;28;19928;-75
2022/11/07 08:02:21;;;;;;;;;;;;;;;-143.57;100.00;51287.09;5095665;28;19977;-74
2022/11/07 08:04:47;;;;;;;;;;;;;;;-143.57;100.00;51295.03;5075690;28;19924;-70
2022/11/07 08:07:14;;;;;;;;;;;;;;;-143.57;100.00;51318.88;5094621;28;20023;-70
2022/11/07 08:09:41;;;;;;;;;;;;;;;-143.57;100.00;51295.03;5092052;28;19930;-71
2022/11/07 08:12:07;;;;;;;;;;;;;;;-143.57;100.00;51299.00;5096570;28;19955;-73
2022/11/07 08:14:34;;;;;;;;;;;;;;;-143.57;100.00;51287.09;5093151;28;19962;-73
2022/11/07 08:17:01;;;;;;;;;;;;;;;-143.57;100.00;51275.16;5078550;28;19923;-72
2022/11/07 08:19:27;;;;;;;;;;;;;;;-143.57;100.00;51310.94;5079588;28;19928;-72
2022/11/07 08:21:54;;;;;;;;;;;;;;;-143.57;100.00;51299.00;5096061;28;20371;-73
2022/11/07 08:24:21;;;;;;;;;;;;;;;-143.57;100.00;51277.16;5098541;28;20009;-74
2022/11/07 08:26:47;;;;;;;;;;;;;;;-143.57;100.00;51303.00;5073215;28;20370;-70
2022/11/07 08:29:14;;;;;;;;;;;;;;;-143.57;100.00;51291.06;5102104;27;20014;-71
2022/11/07 08:31:41;;;;;;;;;;;;;;;-143.57;100.00;51285.09;5082002;28;19932;-71
2022/11/07 08:34:07;;;;;;;;;;;;;;;-143.57;100.00;51287.09;5081037;28;19930;-72
2022/11/07 08:36:34;;;;;;;;;;;;;;;-143.57;100.00;51295.03;5084517;28;19955;-71
2022/11/07 08:39:01;;;;;;;;;;;;;;;-143.57;100.00;51279.13;5081367;28;19936;-71
2022/11/07 08:41:27;;;;;;;;;;;;;;;-143.57;100.00;51295.03;5061788;28;19931;-71
2022/11/07 08:43:54;;;;;;;;;;;;;;;-143.57;100.00;51318.88;5081665;28;20034;-71
2022/11/07 08:46:20;;;;;;;;;;;;;;;-143.57;100.00;51267.19;5081409;28;19928;-72
2022/11/07 08:48:47;;;;;;;;;;;;;;;-143.57;100.00;51306.97;5078292;28;19924;-70
2022/11/07 08:51:14;;;;;;;;;;;;;;;-143.57;100.00;51303.00;5083190;28;20009;-71
2022/11/07 08:53:41;;;;;;;;;;;;;;;-143.57;100.00;51271.19;5064206;28;19977;-72
2022/11/07 08:56:08;;;;;;;;;;;;;;;-143.57;100.00;51243.34;5082316;28;19990;-71
2022/11/07 08:58:35;;;;;;;;;;;;;;;-143.57;100.00;51293.03;5080380;28;20608;-72
2022/11/07 09:01:06;;;;;;;;;;;;;;;-143.57;100.00;51275.16;5084090;28;19964;-69
2022/11/07 09:03:34;;;;;;;;;;;;;;;-143.57;100.00;51287.09;5083093;28;19935;-69
2022/11/07 09:06:20;;;;;;;;;;;;;;;-143.57;100.00;51283.09;5086634;28;20404;-70
2022/11/07 09:08:47;;;;;;;;;;;;;;;-143.57;100.00;51295.03;5082975;28;20405;-70
2022/11/07 09:11:17;;;;;;;;;;;;;;;-143.57;100.00;51263.22;5097624;28;19928;-71
2022/11/07 09:13:45;;;;;;;;;;;;;;;-143.57;100.00;51243.34;5082893;28;20030;-71
2022/11/07 09:16:15;;;;;;;;;;;;;;;-143.57;100.00;51291.06;5084222;28;19931;-72
2022/11/07 09:18:43;;;;;;;;;;;;;;;-143.57;100.00;51243.34;5083430;28;20444;-72
2022/11/07 09:21:10;;;;;;;;;;;;;;;-143.57;100.00;51251.31;5081205;28;19996;-70
2022/11/07 09:23:36;;;;;;;;;;;;;;;-143.57;100.00;51247.31;5086468;28;20010;-71
2022/11/07 09:26:03;;;;;;;;;;;;;;;-143.57;100.00;51279.13;5081064;28;19974;-70
2022/11/07 09:28:30;;;;;;;;;;;;;;;-143.57;100.00;51287.09;5081815;28;19932;-71
2022/11/07 09:30:57;;;;;;;;;;;;;;;-143.57;98.81;51285.09;5068319;28;19924;-71
2022/11/07 09:33:24;;;;;;;;;;;;;;;-143.57;100.00;51275.16;5101049;27;19963;-70
2022/11/07 09:35:51;;;;;;;;;;;;;;;-143.57;99.28;51243.34;5061110;28;19920;-71
2022/11/07 09:38:18;;;;;;;;;;;;;;;-143.57;61.38;51239.38;5082960;28;20017;-70
2022/11/07 09:41:24;;;;;;;;;;;;;;;-143.57;59.51;51283.09;5059557;28;19967;-71
2022/11/07 09:43:59;;;;;;;;;;;;;;;-143.57;59.08;51263.22;5033828;28;20735;-71
2022/11/07 09:46:28;;;;;;;;;;;;;;;-143.57;58.05;51271.19;5032956;28;20640;-71
2022/11/07 09:49:14;;;;;;;;;;;;;;;-143.57;58.97;51231.41;5061445;28;19932;-71
2022/11/07 09:51:46;;;;;;;;;;;;;;;-143.57;56.29;51279.13;5078421;28;20465;-70
2022/11/07 09:54:19;;;;;;;;;;;;;;;-143.57;55.38;51239.38;5080555;28;20336;-70
2022/11/07 09:56:45;;;;;;;;;;;;;;;-143.57;56.96;51247.31;5074785;28;19947;-69
2022/11/07 09:59:19;;;;;;;;;;;;;;;-143.57;58.44;51263.22;5096204;28;19947;-70
2022/11/07 10:01:45;;;;;;;;;;;;;;;-143.57;54.97;51231.41;5078168;28;19955;-70
2022/11/07 10:04:16;;;;;;;;;;;;;;;-143.57;54.50;51245.34;5077649;28;19924;-71
2022/11/07 10:06:57;;;;;;;;;;;;;;;-143.57;53.29;51239.38;5078785;28;19932;-71
2022/11/07 10:09:24;;;;;;;;;;;;;;;-143.57;53.92;51259.25;5078671;28;19967;-71
2022/11/07 10:11:50;;;;;;;;;;;;;;;-143.57;53.58;51239.38;5081799;28;20578;-71
2022/11/07 10:14:17;;;;;;;;;;;;;;;-143.57;51.71;51275.16;5060744;28;19920;-72
2022/11/07 10:16:54;;;;;;;;;;;;;;;-143.57;53.01;51263.22;5084907;28;19924;-70
2022/11/07 10:19:40;;;;;;;;;;;;;;;-143.57;53.20;51231.41;5075425;28;19933;-71
2022/11/07 10:22:12;;;;;;;;;;;;;;;-143.57;52.73;51233.41;5076997;28;19924;-71
2022/11/07 10:24:42;;;;;;;;;;;;;;;-143.57;53.73;51223.47;5077935;28;20021;-70
2022/11/07 10:27:10;;;;;;;;;;;;;;;-143.57;55.36;51223.47;5076649;28;19920;-70
2022/11/07 10:29:49;;;;;;;;;;;;;;;-143.57;55.30;51243.34;5079528;28;19972;-71
2022/11/07 10:32:25;;;;;;;;;;;;;;;-143.57;54.68;51231.41;5084791;28;19920;-70
2022/11/07 10:35:01;;;;;;;;;;;;;;;-143.57;55.67;51263.22;5076503;28;19927;-71
2022/11/07 10:37:28;;;;;;;;;;;;;;;-143.57;56.10;51263.22;5080401;28;19928;-70
2022/11/07 10:39:54;;;;;;;;;;;;;;;-143.57;56.07;51217.50;5061244;28;19955;-70
2022/11/07 10:42:26;;;;;;;;;;;;;;;-143.57;54.99;51231.41;5077299;28;19932;-70
2022/11/07 10:44:54;;;;;;;;;;;;;;;-143.57;56.38;51231.41;5076133;28;20347;-70
2022/11/07 10:47:21;;;;;;;;;;;;;;;-143.57;55.70;51283.09;5083098;28;19927;-71
2022/11/07 10:50:11;;;;;;;;;;;;;;;-143.57;56.70;51203.59;5075933;28;19928;-70
2022/11/07 10:52:40;;;;;;;;;;;;;;;-143.57;56.49;51239.38;5067688;28;19927;-72
2022/11/07 10:55:08;;;;;;;;;;;;;;;-143.57;58.07;51283.09;5077645;28;20027;-72
2022/11/07 10:57:35;;;;;;;;;;;;;;;-143.57;56.08;51247.31;5080590;28;20108;-73
2022/11/07 11:00:03;;;;;;;;;;;;;;;-143.57;54.69;51217.50;5079304;28;19920;-72
2022/11/07 11:02:29;;;;;;;;;;;;;;;-143.57;55.17;51223.47;5081417;28;19924;-70
2022/11/07 11:04:57;;;;;;;;;;;;;;;-143.57;54.12;51239.38;5075546;28;19932;-71
2022/11/07 11:07:35;;;;;;;;;;;;;;;-143.57;54.55;51239.38;5081495;28;20010;-72
2022/11/07 11:10:02;;;;;;;;;;;;;;;-143.57;54.96;51207.56;5080883;28;20555;-72
2022/11/07 11:12:30;;;;;;;;;;;;;;;-143.57;53.00;51247.31;5077243;28;20723;-70
2022/11/07 11:15:04;;;;;;;;;;;;;;;-143.57;54.05;51239.38;5083481;28;20985;-75
2022/11/07 11:17:31;;;;;;;;;;;;;;;-143.57;52.93;51231.41;5080321;28;19932;-69
2022/11/07 11:19:58;;;;;;;;;;;;;;;-143.57;52.28;51239.38;5080761;28;19924;-69
2022/11/07 11:22:25;;;;;;;;;;;;;;;-143.57;51.38;51235.41;5079399;28;20188;-69
2022/11/07 11:25:01;;;;;;;;;;;;;;;-143.57;50.82;51231.41;5085258;28;19931;-70
2022/11/07 11:27:29;;;;;;;;;;;;;;;-143.57;51.86;51211.53;5076692;28;20006;-69
2022/11/07 11:30:00;;;;;;;;;;;;;;;-143.57;50.97;51231.41;5083876;28;19967;-69
2022/11/07 11:32:44;;;;;;;;;;;;;;;-143.57;50.74;51219.50;5088100;28;20023;-73
2022/11/07 11:35:30;;;;;;;;;;;;;;;-143.57;50.13;51239.38;5094849;28;19944;-71
2022/11/07 11:38:03;;;;;;;;;;;;;;;-143.57;50.01;51247.31;5081272;28;20090;-69
2022/11/07 11:40:34;;;;;;;;;;;;;;;-143.57;48.82;51219.50;5081303;28;19928;-75
2022/11/07 11:43:03;;;;;;;;;;;;;;;-143.57;46.97;51241.34;5081309;28;19924;-74
2022/11/07 11:45:36;;;;;;;;;;;;;;;-143.57;47.60;51231.41;5079616;28;19935;-71
2022/11/07 11:48:21;;;;;;;;;;;;;;;-143.57;46.89;51239.38;5080314;28;19925;-72
2022/11/07 11:50:51;;;;;;;;;;;;;;;-143.57;46.52;51231.41;5059507;28;20019;-70
2022/11/07 11:53:19;;;;;;;;;;;;;;;-143.57;47.02;51219.50;5078292;28;20704;-71
2022/11/07 11:55:52;;;;;;;;;;;;;;;-143.57;45.82;51211.53;5074916;28;19933;-71
2022/11/07 11:58:18;;;;;;;;;;;;;;;-143.57;45.77;51223.47;5083021;28;19928;-69
2022/11/07 12:00:55;;;;;;;;;;;;;;;-143.57;45.91;51207.56;5083457;28;19928;-71
2022/11/07 12:03:35;;;;;;;;;;;;;;;-143.57;44.94;51227.44;5089982;28;19932;-71
2022/11/07 12:06:01;;;;;;;;;;;;;;;-143.57;45.00;51187.69;5084632;28;19936;-71
2022/11/07 12:08:28;;;;;;;;;;;;;;;-143.57;44.85;51195.63;5076292;28;19955;-71
2022/11/07 12:10:58;;;;;;;;;;;;;;;-143.57;43.94;51201.59;5089411;28;19974;-71
2022/11/07 12:13:25;;;;;;;;;;;;;;;-143.57;42.76;51193.66;5091595;28;20405;-70
2022/11/07 12:16:10;;;;;;;;;;;;;;;-143.57;42.40;51181.72;5091447;28;19953;-72
2022/11/07 12:18:39;;;;;;;;;;;;;;;-143.57;41.06;51217.50;5090825;28;19974;-71
2022/11/07 12:21:20;;;;;;;;;;;;;;;-143.57;39.84;51187.69;5085960;28;19985;-72
2022/11/07 12:23:55;;;;;;;;;;;;;;;-143.57;38.18;51221.47;5088174;28;19935;-71
2022/11/07 12:26:28;;;;;;;;;;;;;;;-143.57;37.37;51179.75;5088918;28;19932;-72
2022/11/07 12:29:30;;;;;;;;;;;;;;;-143.57;36.15;51181.72;5093098;28;19928;-71
2022/11/07 12:31:57;;;;;;;;;;;;;;;-143.57;34.80;51183.72;5038468;28;19971;-71
2022/11/07 12:34:32;;;;;;;;;;;;;;;-143.57;33.20;51191.66;5078136;28;19924;-72
2022/11/07 12:37:15;;;;;;;;;;;;;;;-143.57;32.41;51167.81;5069486;28;19950;-72
2022/11/07 12:39:42;;;;;;;;;;;;;;;-143.57;31.91;51147.94;5085188;28;20032;-71